Time;durP1;ratioP1;P1;durP2;ratioP2;P2;SDS_P1;SDS_P2;PMS_P1;PMS_P2;Temp;Humidity;BMP_temperature;BMP_pressure;BME280_temperature;BME280_humidity;BME280_pressure;Samples;Min_cycle;Max_cycle;Signal;HPM_P1;HPM_P2
2021/09/22 11:58:56;;;;;;;12.65;9.85;;;;;;;;;;6122879;22;2084392;-58
2021/09/22 12:01:22;;;;;;;11.95;9.93;;;;;;;;;;6212469;23;20441;-52
2021/09/22 12:03:53;;;;;;;13.27;10.40;;;;;;;;;;6236316;23;20339;-48
2021/09/22 12:06:20;;;;;;;10.63;9.40;;;;;;;;;;6208523;23;20421;-52
2021/09/22 12:08:50;;;;;;;11.30;10.05;;;;;;;;;;6235942;23;20757;-49
2021/09/22 12:11:18;;;;;;;12.07;9.50;;;;;;;;;;6239203;23;20444;-49
2021/09/22 12:13:51;;;;;;;11.23;9.73;;;;;;;;;;6210664;23;20432;-51
2021/09/22 12:16:19;;;;;;;12.20;10.03;;;;;;;;;;6210231;23;20357;-54
2021/09/22 12:18:51;;;;;;;12.45;10.23;;;;;;;;;;6239864;23;20334;-50
2021/09/22 12:21:17;;;;;;;13.23;10.43;;;;;;;;;;6241068;23;20421;-50
2021/09/22 12:23:44;;;;;;;10.93;9.13;;;;;;;;;;6240591;23;20342;-49
2021/09/22 12:26:14;;;;;;;11.10;9.65;;;;;;;;;;6212311;23;20663;-48
2021/09/22 12:28:41;;;;;;;11.23;9.77;;;;;;;;;;6239110;23;20388;-51
2021/09/22 12:31:14;;;;;;;10.68;9.35;;;;;;;;;;6212704;23;20358;-52
2021/09/22 12:33:43;;;;;;;10.80;9.32;;;;;;;;;;6213121;23;20850;-50
2021/09/22 12:36:10;;;;;;;10.85;9.27;;;;;;;;;;6210917;23;20426;-50
2021/09/22 12:38:43;;;;;;;11.23;9.63;;;;;;;;;;6212733;23;20605;-51
2021/09/22 12:41:09;;;;;;;10.00;8.82;;;;;;;;;;6240310;23;20384;-50
2021/09/22 12:43:35;;;;;;;10.43;9.00;;;;;;;;;;6240941;23;20346;-50
2021/09/22 12:46:15;;;;;;;10.23;9.05;;;;;;;;;;6239724;23;20330;-53
2021/09/22 12:48:42;;;;;;;12.25;9.27;;;;;;;;;;6212543;23;20350;-52
2021/09/22 12:51:19;;;;;;;10.77;9.52;;;;;;;;;;6212459;23;20441;-51
2021/09/22 12:53:45;;;;;;;11.38;9.63;;;;;;;;;;6212404;23;20522;-49
2021/09/22 12:56:12;;;;;;;11.23;9.25;;;;;;;;;;6239928;23;20433;-48
2021/09/22 12:58:38;;;;;;;12.25;9.02;;;;;;;;;;6239794;22;20608;-50
2021/09/22 13:01:05;;;;;;;10.05;8.80;;;;;;;;;;6237491;23;20366;-52
2021/09/22 13:03:31;;;;;;;10.65;9.18;;;;;;;;;;6211005;23;20353;-52
2021/09/22 13:05:57;;;;;;;10.75;8.85;;;;;;;;;;6238150;23;20356;-51
2021/09/22 13:08:25;;;;;;;10.52;9.05;;;;;;;;;;6236637;23;20440;-50
2021/09/22 13:11:05;;;;;;;11.27;10.07;;;;;;;;;;6211196;23;20404;-51
2021/09/22 13:13:35;;;;;;;9.93;8.88;;;;;;;;;;6212645;23;20802;-50
2021/09/22 13:16:10;;;;;;;10.48;9.13;;;;;;;;;;6212976;23;20361;-49
2021/09/22 13:18:36;;;;;;;10.68;8.73;;;;;;;;;;6239967;23;20341;-50
2021/09/22 13:21:02;;;;;;;9.85;8.40;;;;;;;;;;6240057;23;20342;-53
2021/09/22 13:23:29;;;;;;;9.87;8.43;;;;;;;;;;6239898;23;20346;-50
2021/09/22 13:25:56;;;;;;;9.85;8.45;;;;;;;;;;6240721;23;20357;-50
2021/09/22 13:28:23;;;;;;;10.00;8.48;;;;;;;;;;6240431;23;20340;-51
2021/09/22 13:30:51;;;;;;;9.07;7.88;;;;;;;;;;6212836;23;20350;-52
2021/09/22 13:33:18;;;;;;;9.63;8.10;;;;;;;;;;6240104;23;20394;-54
2021/09/22 13:35:44;;;;;;;9.80;8.30;;;;;;;;;;6213254;23;20346;-49
2021/09/22 13:38:10;;;;;;;9.17;8.07;;;;;;;;;;6240765;23;20327;-54
2021/09/22 13:40:36;;;;;;;10.90;9.15;;;;;;;;;;6241674;23;20337;-54
2021/09/22 13:43:03;;;;;;;10.57;8.60;;;;;;;;;;6241901;23;20339;-54
2021/09/22 13:45:30;;;;;;;9.68;8.60;;;;;;;;;;6215188;23;20350;-55
2021/09/22 13:47:56;;;;;;;9.70;8.47;;;;;;;;;;6214828;23;20460;-50
2021/09/22 13:50:23;;;;;;;10.43;8.77;;;;;;;;;;6214845;23;20687;-50
2021/09/22 13:52:49;;;;;;;9.35;8.07;;;;;;;;;;6214658;23;20401;-49
2021/09/22 13:55:15;;;;;;;9.65;7.95;;;;;;;;;;6235406;23;20346;-49
2021/09/22 13:57:41;;;;;;;8.88;7.55;;;;;;;;;;6240354;23;20794;-46
2021/09/22 14:00:08;;;;;;;8.35;7.25;;;;;;;;;;6240250;22;20504;-47
2021/09/22 14:02:34;;;;;;;9.18;8.07;;;;;;;;;;6213796;23;20358;-48
2021/09/22 14:05:00;;;;;;;8.05;7.22;;;;;;;;;;6241121;23;20330;-45
2021/09/22 14:07:26;;;;;;;9.02;7.57;;;;;;;;;;6241239;23;20434;-51
2021/09/22 14:09:52;;;;;;;8.80;7.90;;;;;;;;;;6240549;23;20420;-49
2021/09/22 14:12:19;;;;;;;8.63;7.50;;;;;;;;;;6239368;23;20338;-50
2021/09/22 14:14:45;;;;;;;9.75;7.80;;;;;;;;;;6214398;23;20350;-50
2021/09/22 14:17:12;;;;;;;8.43;7.53;;;;;;;;;;6215538;23;20839;-46
2021/09/22 14:19:38;;;;;;;8.48;7.57;;;;;;;;;;6242337;23;20450;-54
2021/09/22 14:22:05;;;;;;;8.57;7.68;;;;;;;;;;6242460;23;20744;-48
2021/09/22 14:24:31;;;;;;;8.45;7.47;;;;;;;;;;6215538;23;20369;-47
2021/09/22 14:26:57;;;;;;;8.65;7.68;;;;;;;;;;6242769;23;20777;-47
2021/09/22 14:29:24;;;;;;;9.53;8.20;;;;;;;;;;6242763;23;20338;-48
2021/09/22 14:31:50;;;;;;;8.38;7.50;;;;;;;;;;6215378;23;20350;-49
2021/09/22 14:34:17;;;;;;;8.60;7.70;;;;;;;;;;6215785;23;20497;-48
2021/09/22 14:36:46;;;;;;;8.90;7.85;;;;;;;;;;6242912;23;20463;-46
2021/09/22 14:39:12;;;;;;;9.50;7.47;;;;;;;;;;6242036;23;20346;-51
2021/09/22 14:41:38;;;;;;;9.27;7.50;;;;;;;;;;6241609;23;20633;-55
2021/09/22 14:44:04;;;;;;;8.27;7.47;;;;;;;;;;6242057;23;20353;-49
2021/09/22 14:46:30;;;;;;;8.75;7.70;;;;;;;;;;6242368;23;20337;-50
2021/09/22 14:48:56;;;;;;;9.40;8.18;;;;;;;;;;6240515;23;20418;-50
2021/09/22 14:51:23;;;;;;;8.90;8.00;;;;;;;;;;6238714;23;20342;-50
2021/09/22 14:53:49;;;;;;;9.07;7.43;;;;;;;;;;6241303;23;20374;-51
2021/09/22 14:56:16;;;;;;;8.27;7.40;;;;;;;;;;6241967;23;20807;-52
2021/09/22 14:58:43;;;;;;;8.27;7.10;;;;;;;;;;6242006;23;20361;-50
2021/09/22 15:01:10;;;;;;;8.20;7.32;;;;;;;;;;6240952;23;20370;-49
2021/09/22 15:03:36;;;;;;;8.90;7.68;;;;;;;;;;6241679;23;20331;-53
2021/09/22 15:06:02;;;;;;;8.10;7.15;;;;;;;;;;6242084;23;20365;-48
2021/09/22 15:08:28;;;;;;;8.40;7.28;;;;;;;;;;6242161;23;20487;-50
2021/09/22 15:10:54;;;;;;;8.27;7.13;;;;;;;;;;6241363;23;20338;-50
2021/09/22 15:13:20;;;;;;;8.88;7.50;;;;;;;;;;6242017;23;20392;-51
2021/09/22 15:15:46;;;;;;;8.32;7.35;;;;;;;;;;6241675;23;20334;-51
2021/09/22 15:18:12;;;;;;;8.30;7.40;;;;;;;;;;6214407;23;20367;-48
2021/09/22 15:20:38;;;;;;;8.10;7.30;;;;;;;;;;6241426;23;20809;-50
2021/09/22 15:23:04;;;;;;;7.60;6.80;;;;;;;;;;6241615;23;20545;-50
2021/09/22 15:25:31;;;;;;;7.97;7.18;;;;;;;;;;6241724;23;20339;-50
2021/09/22 15:27:58;;;;;;;7.95;7.13;;;;;;;;;;6241254;23;20644;-53
2021/09/22 15:30:24;;;;;;;7.90;7.10;;;;;;;;;;6241660;23;20353;-53
2021/09/22 15:32:53;;;;;;;7.65;6.60;;;;;;;;;;6240952;23;20376;-52
2021/09/22 15:35:20;;;;;;;8.07;6.80;;;;;;;;;;6241199;23;20438;-50
2021/09/22 15:37:46;;;;;;;7.38;6.43;;;;;;;;;;6241327;23;20338;-50
2021/09/22 15:40:18;;;;;;;7.93;7.13;;;;;;;;;;6239077;23;20338;-50
2021/09/22 15:42:44;;;;;;;7.97;7.18;;;;;;;;;;6240746;23;20425;-51
2021/09/22 15:45:11;;;;;;;8.00;7.15;;;;;;;;;;6240815;23;20678;-49
2021/09/22 15:47:37;;;;;;;8.13;7.05;;;;;;;;;;6213867;23;20330;-50
2021/09/22 15:50:04;;;;;;;8.75;7.40;;;;;;;;;;6239772;23;20429;-51
2021/09/22 15:52:31;;;;;;;8.77;7.68;;;;;;;;;;6240577;23;20362;-52
2021/09/22 15:54:57;;;;;;;8.70;7.57;;;;;;;;;;6239920;23;20338;-53
2021/09/22 15:57:23;;;;;;;7.97;6.97;;;;;;;;;;6240357;23;20345;-51
2021/09/22 15:59:49;;;;;;;8.18;7.32;;;;;;;;;;6239804;23;20370;-51
2021/09/22 16:02:15;;;;;;;8.05;7.25;;;;;;;;;;6213604;23;20330;-51
2021/09/22 16:04:41;;;;;;;9.70;7.85;;;;;;;;;;6240799;23;20330;-51
2021/09/22 16:07:07;;;;;;;8.38;7.10;;;;;;;;;;6239376;23;20334;-53
2021/09/22 16:09:33;;;;;;;8.17;7.30;;;;;;;;;;6240272;23;20407;-52
2021/09/22 16:11:59;;;;;;;8.50;7.57;;;;;;;;;;6240350;23;20326;-50
2021/09/22 16:14:26;;;;;;;8.70;7.63;;;;;;;;;;6240453;23;20384;-51
2021/09/22 16:16:53;;;;;;;8.93;7.38;;;;;;;;;;6240148;23;21030;-49
2021/09/22 16:19:19;;;;;;;7.82;7.00;;;;;;;;;;6239915;23;20341;-51
2021/09/22 16:21:45;;;;;;;9.05;7.82;;;;;;;;;;6240115;23;20841;-54
2021/09/22 16:24:11;;;;;;;8.73;6.97;;;;;;;;;;6239773;23;20338;-54
2021/09/22 16:26:37;;;;;;;8.00;7.20;;;;;;;;;;6240511;23;20326;-53
2021/09/22 16:29:03;;;;;;;7.95;6.95;;;;;;;;;;6240141;23;20339;-53
2021/09/22 16:31:29;;;;;;;7.97;7.05;;;;;;;;;;6239545;23;20345;-56
2021/09/22 16:33:55;;;;;;;8.33;7.40;;;;;;;;;;6238510;23;20751;-54
2021/09/22 16:36:21;;;;;;;8.30;7.23;;;;;;;;;;6239541;23;20330;-53
2021/09/22 16:38:48;;;;;;;8.25;7.38;;;;;;;;;;6240066;23;20779;-54
2021/09/22 16:41:14;;;;;;;8.35;7.45;;;;;;;;;;6240128;23;20361;-51
2021/09/22 16:43:40;;;;;;;8.35;7.13;;;;;;;;;;6239619;23;20334;-52
2021/09/22 16:46:06;;;;;;;8.05;7.15;;;;;;;;;;6240175;23;20766;-54
2021/09/22 16:48:33;;;;;;;8.05;7.18;;;;;;;;;;6240199;23;20432;-54
2021/09/22 16:50:59;;;;;;;7.93;6.90;;;;;;;;;;6212779;23;20373;-53
2021/09/22 16:53:26;;;;;;;7.80;7.00;;;;;;;;;;6240652;23;20382;-50
2021/09/22 16:55:52;;;;;;;8.75;7.47;;;;;;;;;;6240058;23;20810;-50
2021/09/22 16:58:18;;;;;;;7.90;6.90;;;;;;;;;;6238460;23;20342;-54
2021/09/22 17:00:44;;;;;;;8.50;7.32;;;;;;;;;;6238206;23;20369;-51
2021/09/22 17:03:13;;;;;;;8.63;7.32;;;;;;;;;;6238185;23;20397;-51
2021/09/22 17:05:43;;;;;;;8.55;7.38;;;;;;;;;;6238531;23;20385;-53
2021/09/22 17:08:15;;;;;;;9.60;8.25;;;;;;;;;;6238941;23;20334;-53
2021/09/22 17:10:46;;;;;;;11.25;9.32;;;;;;;;;;6239058;23;20800;-55
2021/09/22 17:13:15;;;;;;;11.18;9.55;;;;;;;;;;6213192;23;20419;-51
2021/09/22 17:15:46;;;;;;;11.50;9.23;;;;;;;;;;6241867;23;20334;-49
2021/09/22 17:18:12;;;;;;;10.05;8.48;;;;;;;;;;6242435;23;20400;-49
2021/09/22 17:20:38;;;;;;;11.18;9.73;;;;;;;;;;6214908;23;20417;-53
2021/09/22 17:23:06;;;;;;;11.10;9.45;;;;;;;;;;6240953;23;20379;-53
2021/09/22 17:25:35;;;;;;;10.55;9.43;;;;;;;;;;6240118;23;20336;-52
2021/09/22 17:28:02;;;;;;;11.32;10.02;;;;;;;;;;6241604;23;20412;-49
2021/09/22 17:30:34;;;;;;;12.40;10.40;;;;;;;;;;6212972;23;20389;-51
2021/09/22 17:33:03;;;;;;;11.60;10.37;;;;;;;;;;6241560;23;20856;-51
2021/09/22 17:35:29;;;;;;;11.40;10.10;;;;;;;;;;6243053;23;20464;-51
2021/09/22 17:37:56;;;;;;;12.27;10.50;;;;;;;;;;6242800;23;20483;-51
2021/09/22 17:40:26;;;;;;;13.15;10.73;;;;;;;;;;6242378;23;20369;-53
2021/09/22 17:42:54;;;;;;;15.90;10.93;;;;;;;;;;6242476;23;20331;-59
2021/09/22 17:45:25;;;;;;;13.13;10.77;;;;;;;;;;6242244;23;20393;-58
2021/09/22 17:47:55;;;;;;;12.18;10.25;;;;;;;;;;6242286;23;20341;-59
2021/09/22 17:50:31;;;;;;;11.63;10.13;;;;;;;;;;6242452;23;20349;-58
2021/09/22 17:53:02;;;;;;;13.13;9.68;;;;;;;;;;6241787;23;20678;-59
2021/09/22 17:55:28;;;;;;;11.10;9.90;;;;;;;;;;6190527;23;20357;-57
2021/09/22 17:57:57;;;;;;;11.40;9.82;;;;;;;;;;6242383;22;20377;-56
2021/09/22 18:00:26;;;;;;;12.02;9.48;;;;;;;;;;6210766;23;20405;-57
2021/09/22 18:02:52;;;;;;;11.25;9.40;;;;;;;;;;6241776;23;20407;-59
2021/09/22 18:05:18;;;;;;;10.32;9.02;;;;;;;;;;6242112;23;20338;-57
2021/09/22 18:07:45;;;;;;;10.85;8.98;;;;;;;;;;6241918;23;20441;-57
2021/09/22 18:10:14;;;;;;;10.60;9.50;;;;;;;;;;6241948;23;20357;-58
2021/09/22 18:12:43;;;;;;;11.70;10.10;;;;;;;;;;6242180;23;20489;-56
2021/09/22 18:15:09;;;;;;;11.65;9.98;;;;;;;;;;6241722;23;20334;-57
2021/09/22 18:17:36;;;;;;;10.83;9.27;;;;;;;;;;6241852;23;20829;-57
2021/09/22 18:20:09;;;;;;;12.70;9.70;;;;;;;;;;6241908;23;20494;-56
2021/09/22 18:22:35;;;;;;;11.25;9.73;;;;;;;;;;6241492;23;20814;-57
2021/09/22 18:25:02;;;;;;;11.55;10.07;;;;;;;;;;6240986;23;20366;-57
2021/09/22 18:27:31;;;;;;;11.57;9.68;;;;;;;;;;6242156;23;20747;-58
2021/09/22 18:30:00;;;;;;;11.07;9.93;;;;;;;;;;6241785;23;20362;-58
2021/09/22 18:32:29;;;;;;;11.32;9.65;;;;;;;;;;6241638;23;20734;-57
2021/09/22 18:34:58;;;;;;;10.35;9.15;;;;;;;;;;6241679;23;20335;-57
2021/09/22 18:37:26;;;;;;;11.50;10.10;;;;;;;;;;6241677;23;20339;-56
2021/09/22 18:40:01;;;;;;;11.70;9.50;;;;;;;;;;6214927;23;20878;-57
2021/09/22 18:42:27;;;;;;;11.23;9.90;;;;;;;;;;6241605;23;20340;-57
2021/09/22 18:44:56;;;;;;;11.07;9.98;;;;;;;;;;6241303;23;20441;-58
2021/09/22 18:47:25;;;;;;;11.05;9.88;;;;;;;;;;6241396;23;20338;-56
2021/09/22 18:49:52;;;;;;;10.88;9.68;;;;;;;;;;6214326;23;20374;-56
2021/09/22 18:52:21;;;;;;;11.50;9.90;;;;;;;;;;6241079;23;20397;-57
2021/09/22 18:54:47;;;;;;;12.57;10.63;;;;;;;;;;6214123;23;20349;-58
2021/09/22 18:57:17;;;;;;;11.23;10.03;;;;;;;;;;6213649;23;20453;-56
2021/09/22 18:59:43;;;;;;;11.48;10.27;;;;;;;;;;6240979;23;20374;-58
2021/09/22 19:02:11;;;;;;;11.90;10.50;;;;;;;;;;6214343;23;20783;-57
2021/09/22 19:04:39;;;;;;;11.25;9.80;;;;;;;;;;6241048;23;20352;-58
2021/09/22 19:07:09;;;;;;;12.98;10.68;;;;;;;;;;6240890;23;20334;-57
2021/09/22 19:09:35;;;;;;;11.48;10.20;;;;;;;;;;6214368;23;20448;-58
2021/09/22 19:12:05;;;;;;;11.63;10.07;;;;;;;;;;6214631;23;20767;-58
2021/09/22 19:14:31;;;;;;;12.23;10.90;;;;;;;;;;6214181;23;20471;-57
2021/09/22 19:17:00;;;;;;;12.13;10.50;;;;;;;;;;6240957;23;20326;-56
2021/09/22 19:19:27;;;;;;;13.67;10.60;;;;;;;;;;6241250;23;20385;-56
2021/09/22 19:21:53;;;;;;;12.48;10.50;;;;;;;;;;6214319;23;20350;-56
2021/09/22 19:24:25;;;;;;;12.13;10.75;;;;;;;;;;6241541;23;20342;-59
2021/09/22 19:26:51;;;;;;;12.53;10.73;;;;;;;;;;6213887;23;20350;-58
2021/09/22 19:29:19;;;;;;;12.32;10.55;;;;;;;;;;6240956;23;20413;-57
2021/09/22 19:31:46;;;;;;;13.63;11.10;;;;;;;;;;6214263;23;20488;-58
2021/09/22 19:34:15;;;;;;;13.52;11.63;;;;;;;;;;6213837;23;20474;-56
2021/09/22 19:36:43;;;;;;;13.40;11.57;;;;;;;;;;6240925;23;20340;-58
2021/09/22 19:39:10;;;;;;;12.30;11.00;;;;;;;;;;6240831;23;20338;-57
2021/09/22 19:41:40;;;;;;;11.90;10.70;;;;;;;;;;6213897;23;20470;-58
2021/09/22 19:44:07;;;;;;;13.27;11.20;;;;;;;;;;6240261;23;20391;-58
2021/09/22 19:46:34;;;;;;;13.10;11.43;;;;;;;;;;6211170;23;20687;-58
2021/09/22 19:49:01;;;;;;;13.57;11.43;;;;;;;;;;6212722;23;20771;-56
2021/09/22 19:51:27;;;;;;;14.05;11.40;;;;;;;;;;6240543;23;20341;-55
2021/09/22 19:53:53;;;;;;;16.52;13.00;;;;;;;;;;6240775;23;20370;-61
2021/09/22 19:56:24;;;;;;;20.77;15.23;;;;;;;;;;6213606;23;20342;-54
2021/09/22 19:58:51;;;;;;;20.45;14.77;;;;;;;;;;6238715;23;20457;-58
2021/09/22 20:01:17;;;;;;;19.75;15.18;;;;;;;;;;6239487;23;20412;-56
2021/09/22 20:03:43;;;;;;;20.13;15.67;;;;;;;;;;6240381;23;20418;-57
2021/09/22 20:06:09;;;;;;;19.50;15.20;;;;;;;;;;6239656;23;20326;-57
2021/09/22 20:08:38;;;;;;;19.20;15.23;;;;;;;;;;6240754;23;20334;-57
2021/09/22 20:11:05;;;;;;;18.02;14.43;;;;;;;;;;6240174;23;20334;-58
2021/09/22 20:13:31;;;;;;;18.95;14.50;;;;;;;;;;6240207;23;20405;-58
2021/09/22 20:15:57;;;;;;;18.98;14.60;;;;;;;;;;6240253;23;20391;-59
2021/09/22 20:18:23;;;;;;;18.90;14.77;;;;;;;;;;6239512;23;20343;-57
2021/09/22 20:20:49;;;;;;;17.83;14.20;;;;;;;;;;6238586;23;20346;-59
2021/09/22 20:23:17;;;;;;;18.23;14.20;;;;;;;;;;6240604;23;20783;-68
2021/09/22 20:25:44;;;;;;;17.85;14.18;;;;;;;;;;6240592;23;20333;-67
2021/09/22 20:28:10;;;;;;;16.60;13.32;;;;;;;;;;6238600;23;20478;-68
2021/09/22 20:30:36;;;;;;;16.77;12.95;;;;;;;;;;6240155;23;20334;-67
2021/09/22 20:33:03;;;;;;;18.50;14.02;;;;;;;;;;6240937;23;20373;-65
2021/09/22 20:35:30;;;;;;;18.20;13.85;;;;;;;;;;6240210;23;20783;-65
2021/09/22 20:37:56;;;;;;;16.75;13.93;;;;;;;;;;6240729;23;20337;-65
2021/09/22 20:40:23;;;;;;;17.23;13.70;;;;;;;;;;6241252;23;20357;-66
2021/09/22 20:42:50;;;;;;;17.20;13.68;;;;;;;;;;6240754;23;20330;-65
2021/09/22 20:45:17;;;;;;;16.98;13.65;;;;;;;;;;6240089;23;20366;-66
2021/09/22 20:47:43;;;;;;;17.42;14.07;;;;;;;;;;6239097;23;20454;-66
2021/09/22 20:50:10;;;;;;;19.60;15.10;;;;;;;;;;6240247;23;20405;-65
2021/09/22 20:52:39;;;;;;;19.23;13.90;;;;;;;;;;6240459;23;20334;-66
2021/09/22 20:55:06;;;;;;;18.73;15.07;;;;;;;;;;6238437;23;20845;-66
2021/09/22 20:57:32;;;;;;;19.40;15.30;;;;;;;;;;6240353;23;20330;-66
2021/09/22 20:59:59;;;;;;;20.90;15.20;;;;;;;;;;6239596;23;20374;-64
2021/09/22 21:02:25;;;;;;;19.33;14.55;;;;;;;;;;6240454;23;20334;-65
2021/09/22 21:04:51;;;;;;;19.23;14.80;;;;;;;;;;6238226;23;20635;-64
2021/09/22 21:07:17;;;;;;;18.67;14.45;;;;;;;;;;6238248;23;20821;-65
2021/09/22 21:09:43;;;;;;;19.55;15.07;;;;;;;;;;6240287;23;20346;-65
2021/09/22 21:12:10;;;;;;;19.05;14.98;;;;;;;;;;6213207;23;20396;-66
2021/09/22 21:14:36;;;;;;;19.60;15.27;;;;;;;;;;6238372;23;20891;-66
2021/09/22 21:17:03;;;;;;;21.00;16.23;;;;;;;;;;6213239;23;20354;-65
2021/09/22 21:19:29;;;;;;;18.98;14.70;;;;;;;;;;6240122;23;20334;-65
2021/09/22 21:21:57;;;;;;;18.73;14.65;;;;;;;;;;6240115;23;20348;-64
2021/09/22 21:24:23;;;;;;;19.98;14.65;;;;;;;;;;6240425;23;20337;-66
2021/09/22 21:26:52;;;;;;;18.80;14.63;;;;;;;;;;6240026;23;20404;-64
2021/09/22 21:29:18;;;;;;;19.83;15.32;;;;;;;;;;6239904;23;20350;-65
2021/09/22 21:31:44;;;;;;;20.35;15.35;;;;;;;;;;6240311;23;20786;-66
2021/09/22 21:34:11;;;;;;;20.07;14.70;;;;;;;;;;6239452;23;20866;-65
2021/09/22 21:36:37;;;;;;;18.52;14.48;;;;;;;;;;6240171;23;20441;-70
2021/09/22 21:39:04;;;;;;;18.08;13.82;;;;;;;;;;6213215;23;20361;-63
2021/09/22 21:41:35;;;;;;;18.17;13.85;;;;;;;;;;6239888;23;20338;-59
2021/09/22 21:44:01;;;;;;;18.63;13.45;;;;;;;;;;6239321;23;20388;-63
2021/09/22 21:46:27;;;;;;;16.98;13.30;;;;;;;;;;6240150;23;20334;-64
